EGOS

RAF Shawbury Airport

Shawbury, United Kingdom
METAR EGOS 201150Z AUTO 07003KT 2500 SN BKN002/// SCT018/// 01/00 Q0999
Observed Flight Rules
Jan-20 @ 11:50 UTC (an hour ago) Instrument Flight Rules
Wind Visibility Clouds Conditions
70° at 3 knots 2,494 meters
  • Broken at 200' AGL
  • Scattered at 1,800' AGL
  • Snow
Temperatures Readings
Current 1°C / 34°F
Dewpoint 0°C / 32°F
Humidity 93%
Altimeter 29.5" Hg
Pressure 999 hPa
Elevation 76
METAR EGOS 201150Z AUTO 07003KT 2500 SN BKN002/// SCT018/// 01/00 Q0999
Observed Flight Rules
Jan-20 @ 11:50 UTC
(an hour ago)
LIFR
Wind Visibility
70° at 3 knots 2,494 meters
Clouds
  • Broken at 200' AGL
  • Scattered at 1,800' AGL
Conditions
  • Snow
Temperature Dewpoint
1°C / 34°F 0°C / 32°F
Humidity Altimeter Pressure
93% 29.5" Hg 999 hPa